Terminal Aerodrome Forecast
Issued by NWS Greer, SC

Home | Current Version | Previous Version | Text Only | Print | Product List | Glossary On
Versions: 1 2 3 4 5 6 7 8 9 10 11 12 13 14 15
000
FTUS42 KGSP 010636 AAA
TAFGSP
TAF AMD
KGSP 010636Z 0107/0206 30012G19KT P6SM SCT040 OVC060
      TEMPO 0107/0110 5SM -RA BR BKN025 OVC040
     FM011000 33011KT P6SM -RA OVC030
      TEMPO 0110/0114 5SM -RASN BR OVC015
     FM011400 35014G20KT P6SM BKN035
     FM012200 34014KT P6SM SCT110
     FM020500 33009KT P6SM SKC=

USA.gov is the U.S. government's official web portal to all federal, state and local government web resources and services.